createdAt,value
2018-04-12T00:01:34.625Z,81.42
2018-04-12T00:04:03.087Z,81.61
2018-04-12T00:06:32.265Z,81.79
2018-04-12T00:09:01.322Z,81.86
2018-04-12T00:11:29.707Z,81.74
2018-04-12T00:13:58.081Z,81.95
2018-04-12T00:16:26.438Z,82.27
2018-04-12T00:18:54.777Z,82.43
2018-04-12T00:21:23.899Z,82.49
2018-04-12T00:23:52.413Z,82.74
2018-04-12T00:26:20.780Z,82.63
2018-04-12T00:28:49.066Z,82.82
2018-04-12T00:31:17.406Z,82.98
2018-04-12T00:33:45.754Z,82.93
2018-04-12T00:36:14.188Z,83.05
2018-04-12T00:38:42.465Z,83.01
2018-04-12T00:41:11.002Z,83.14
2018-04-12T00:43:40.037Z,83.17
2018-04-12T00:46:08.373Z,83.25
2018-04-12T00:48:37.452Z,83.12
2018-04-12T00:51:06.698Z,83.02
2018-04-12T00:54:16.897Z,83.22
2018-04-12T00:56:45.356Z,83.31
2018-04-12T00:59:14.406Z,83.45
2018-04-12T01:01:42.993Z,83.27
2018-04-12T01:04:12.115Z,83.33
2018-04-12T01:06:40.514Z,83.53
2018-04-12T01:09:08.861Z,83.44
2018-04-12T01:11:37.173Z,83.64
2018-04-12T01:14:05.519Z,83.75
2018-04-12T01:16:33.974Z,83.58
2018-04-12T01:19:03.141Z,83.54
2018-04-12T01:21:31.558Z,83.77
2018-04-12T01:24:00.011Z,83.69
2018-04-12T01:26:28.958Z,83.73
2018-04-12T01:28:57.295Z,83.69
2018-04-12T01:31:26.325Z,83.45
2018-04-12T01:33:54.629Z,83.71
2018-04-12T01:36:22.971Z,83.66
2018-04-12T01:38:51.341Z,83.69
2018-04-12T01:41:19.702Z,83.75
2018-04-12T01:43:48.866Z,83.49
2018-04-12T01:46:17.247Z,83.38
2018-04-12T01:48:45.574Z,83.69
2018-04-12T01:51:13.848Z,83.48
2018-04-12T01:53:42.166Z,83.48
2018-04-12T01:56:10.515Z,83.53
2018-04-12T01:58:38.818Z,83.52
2018-04-12T02:01:07.139Z,83.44
2018-04-12T02:03:36.217Z,83.48
2018-04-12T02:06:04.897Z,83.38
2018-04-12T02:08:33.153Z,83.26
2018-04-12T02:11:01.562Z,83.39
2018-04-12T02:13:30.179Z,83.52
2018-04-12T02:15:58.637Z,83.49
2018-04-12T02:18:27.045Z,83.42
2018-04-12T02:20:55.325Z,83.20
2018-04-12T02:23:23.615Z,83.14
2018-04-12T02:25:51.941Z,82.75
2018-04-12T02:28:20.433Z,82.84
2018-04-12T02:30:48.795Z,82.61
2018-04-12T02:33:17.157Z,82.61
2018-04-12T02:35:45.413Z,82.43
2018-04-12T02:38:13.825Z,82.56
2018-04-12T02:40:42.245Z,82.31
2018-04-12T02:43:16.837Z,82.23
2018-04-12T02:45:45.400Z,82.14
2018-04-12T02:48:13.805Z,82.19
2018-04-12T02:50:50.027Z,82.20
2018-04-12T02:53:18.365Z,82.09
2018-04-12T02:55:46.698Z,81.93
2018-04-12T02:58:14.992Z,81.92
2018-04-12T03:00:43.279Z,81.96
2018-04-12T03:03:11.682Z,82.00
2018-04-12T03:05:40.119Z,81.95
2018-04-12T03:08:08.517Z,82.02
2018-04-12T03:10:37.557Z,81.85
2018-04-12T03:13:05.860Z,81.87
2018-04-12T03:15:34.338Z,81.69
2018-04-12T03:18:02.685Z,81.58
2018-04-12T03:20:31.036Z,81.52
2018-04-12T03:22:59.375Z,81.42
2018-04-12T03:25:27.708Z,81.49
2018-04-12T03:27:56.182Z,81.43
2018-04-12T03:30:24.584Z,81.29
2018-04-12T03:32:52.998Z,81.50
2018-04-12T03:35:21.270Z,81.65
2018-04-12T03:37:49.612Z,81.60
2018-04-12T03:40:18.018Z,81.19
2018-04-12T03:42:46.470Z,81.18
2018-04-12T03:45:14.847Z,81.30
2018-04-12T03:47:43.141Z,81.03
2018-04-12T03:50:11.653Z,81.00
2018-04-12T03:52:40.037Z,81.30
2018-04-12T03:55:09.056Z,81.37
2018-04-12T03:57:37.346Z,81.15
2018-04-12T04:00:06.220Z,81.11
2018-04-12T04:02:34.560Z,81.26
2018-04-12T04:05:02.931Z,81.25
2018-04-12T04:07:31.325Z,81.25
2018-04-12T04:09:59.722Z,81.52
2018-04-12T04:12:28.807Z,81.64
2018-04-12T04:15:11.389Z,81.56
2018-04-12T04:19:54.870Z,81.50
2018-04-12T04:22:23.918Z,81.75
2018-04-12T04:24:52.223Z,81.81
2018-04-12T04:27:20.702Z,81.63
2018-04-12T04:29:49.282Z,81.59
2018-04-12T04:32:17.613Z,81.31
2018-04-12T04:34:45.983Z,81.59
2018-04-12T04:37:14.309Z,81.55
2018-04-12T04:39:42.685Z,81.65
2018-04-12T04:42:11.287Z,81.82
2018-04-12T04:44:40.848Z,81.67
2018-04-12T04:47:09.893Z,81.43
2018-04-12T04:49:38.222Z,81.54
2018-04-12T04:52:07.174Z,81.72
2018-04-12T04:54:35.542Z,81.79
2018-04-12T04:57:04.735Z,81.67
2018-04-12T04:59:34.556Z,81.62
2018-04-12T05:02:03.295Z,81.59
2018-04-12T05:04:31.598Z,81.55
2018-04-12T05:06:59.945Z,81.51
2018-04-12T05:09:28.342Z,81.34
2018-04-12T05:11:56.715Z,81.06
2018-04-12T05:14:25.502Z,81.41
2018-04-12T05:16:54.187Z,81.35
2018-04-12T05:19:22.475Z,81.06
2018-04-12T05:21:50.980Z,81.02
2018-04-12T05:24:19.570Z,81.00
2018-04-12T05:26:48.749Z,81.25
2018-04-12T05:29:17.273Z,81.43
2018-04-12T05:31:45.934Z,81.00
2018-04-12T05:34:14.735Z,80.79
2018-04-12T05:36:43.159Z,80.64
2018-04-12T05:39:11.558Z,80.90
2018-04-12T05:41:39.933Z,80.39
2018-04-12T05:44:08.510Z,80.72
2018-04-12T05:46:36.988Z,80.37
2018-04-12T05:49:05.717Z,80.54
2018-04-12T05:51:34.011Z,79.96
2018-04-12T05:54:02.374Z,80.68
2018-04-12T05:56:30.799Z,80.47
2018-04-12T05:58:59.103Z,80.15
2018-04-12T06:01:27.438Z,79.92
2018-04-12T06:03:55.747Z,80.36
2018-04-12T06:06:24.157Z,79.83
2018-04-12T06:08:53.240Z,79.92
2018-04-12T06:11:22.410Z,79.81
2018-04-12T06:13:50.918Z,79.81
2018-04-12T06:16:19.221Z,79.70
2018-04-12T06:18:47.603Z,79.82
2018-04-12T06:21:15.987Z,79.29
2018-04-12T06:23:45.157Z,79.24
2018-04-12T06:26:13.585Z,79.03
2018-04-12T06:28:42.002Z,78.87
2018-04-12T06:31:10.391Z,78.36
2018-04-12T06:33:38.757Z,78.17
2018-04-12T06:36:07.132Z,78.01
2018-04-12T06:38:35.739Z,78.95
2018-04-12T06:41:04.098Z,78.79
2018-04-12T06:43:32.484Z,78.58
2018-04-12T06:46:00.952Z,78.79
2018-04-12T06:48:29.330Z,78.63
2018-04-12T06:50:57.796Z,78.34
2018-04-12T06:53:26.128Z,79.09
2018-04-12T06:55:54.398Z,79.09
2018-04-12T06:58:22.727Z,78.96
2018-04-12T07:00:51.014Z,78.53
2018-04-12T07:03:19.392Z,79.02
2018-04-12T07:05:47.881Z,79.24
2018-04-12T07:08:16.173Z,79.31
2018-04-12T07:10:45.358Z,79.13
2018-04-12T07:13:13.739Z,78.99
2018-04-12T07:15:42.831Z,79.01
2018-04-12T07:18:12.007Z,79.17
2018-04-12T07:20:40.503Z,78.87
2018-04-12T07:23:08.798Z,78.54
2018-04-12T07:25:37.903Z,78.88
2018-04-12T07:28:06.373Z,79.10
2018-04-12T07:30:35.452Z,79.05
2018-04-12T07:33:03.735Z,78.70
2018-04-12T07:35:32.154Z,78.57
2018-04-12T07:38:00.530Z,78.03
2018-04-12T07:40:28.861Z,78.62
2018-04-12T07:42:57.401Z,78.62
2018-04-12T07:45:25.778Z,78.46
2018-04-12T07:47:54.204Z,77.85
2018-04-12T07:50:22.546Z,77.73
2018-04-12T07:52:51.093Z,77.68
2018-04-12T07:55:20.226Z,77.10
2018-04-12T07:57:48.570Z,76.75
2018-04-12T08:00:16.914Z,76.45
2018-04-12T08:02:45.290Z,77.17
2018-04-12T08:05:13.730Z,76.83
2018-04-12T08:07:42.073Z,76.54
2018-04-12T08:10:11.243Z,76.38
2018-04-12T08:12:39.670Z,76.30
2018-04-12T08:15:08.108Z,77.51
2018-04-12T08:17:36.458Z,77.15
2018-04-12T08:20:04.866Z,76.94
2018-04-12T08:22:33.146Z,77.38
2018-04-12T08:25:01.506Z,77.51
2018-04-12T08:27:29.887Z,77.30
2018-04-12T08:29:58.213Z,76.89
2018-04-12T08:32:26.730Z,77.17
2018-04-12T08:34:56.331Z,77.53
2018-04-12T08:37:26.069Z,77.72
2018-04-12T08:39:54.480Z,78.38
2018-04-12T08:42:23.591Z,78.47
2018-04-12T08:44:52.058Z,77.86
2018-04-12T08:47:20.424Z,77.57
2018-04-12T08:49:48.777Z,77.31
2018-04-12T08:52:17.168Z,76.52
2018-04-12T08:54:45.610Z,76.04
2018-04-12T08:57:14.019Z,75.91
2018-04-12T08:59:43.320Z,75.83
2018-04-12T09:02:11.885Z,76.24
2018-04-12T09:04:40.295Z,76.19
2018-04-12T09:07:09.370Z,75.85
2018-04-12T09:09:37.697Z,75.93
2018-04-12T09:12:06.655Z,75.63
2018-04-12T09:14:34.995Z,75.53
2018-04-12T09:17:03.341Z,75.77
2018-04-12T09:19:32.330Z,75.52
2018-04-12T09:22:00.714Z,74.86
2018-04-12T09:24:31.077Z,75.07
2018-04-12T09:26:59.482Z,74.91
2018-04-12T09:29:29.114Z,75.34
2018-04-12T09:31:58.142Z,75.86
2018-04-12T09:34:26.659Z,75.61
2018-04-12T09:36:54.930Z,76.17
2018-04-12T09:39:23.302Z,76.10
2018-04-12T09:41:51.885Z,75.49
2018-04-12T09:44:20.214Z,76.01
2018-04-12T09:46:48.720Z,75.50
2018-04-12T09:49:17.676Z,75.51
2018-04-12T09:51:46.041Z,74.15
2018-04-12T09:54:14.345Z,73.88
2018-04-12T09:56:43.671Z,73.08
2018-04-12T09:59:12.734Z,72.41
2018-04-12T10:01:45.612Z,71.83
2018-04-12T10:04:15.949Z,71.75
2018-04-12T10:06:44.976Z,70.31
2018-04-12T10:09:14.024Z,70.39
2018-04-12T10:11:42.337Z,69.77
2018-04-12T10:14:11.367Z,70.17
2018-04-12T10:16:40.839Z,70.81
2018-04-12T10:19:10.519Z,69.75
2018-04-12T10:21:38.859Z,69.39
2018-04-12T10:24:07.254Z,68.96
2018-04-12T10:26:36.080Z,69.23
2018-04-12T10:29:04.473Z,67.69
2018-04-12T10:31:33.073Z,67.45
2018-04-12T10:34:01.797Z,66.78
2018-04-12T10:36:31.000Z,67.61
2018-04-12T10:38:59.316Z,66.94
2018-04-12T10:41:27.605Z,65.93
2018-04-12T10:43:56.173Z,65.77
2018-04-12T10:46:24.645Z,66.05
2018-04-12T10:48:52.997Z,66.22
2018-04-12T10:51:21.375Z,66.15
2018-04-12T10:53:49.747Z,65.78
2018-04-12T10:56:18.989Z,65.88
2018-04-12T10:58:47.392Z,65.74
2018-04-12T11:01:15.789Z,65.21
2018-04-12T11:03:44.373Z,64.72
2018-04-12T11:06:13.369Z,63.57
2018-04-12T11:08:41.755Z,63.39
2018-04-12T11:11:10.106Z,63.43
2018-04-12T11:13:38.433Z,62.53
2018-04-12T11:16:06.762Z,62.63
2018-04-12T11:18:35.035Z,62.70
2018-04-12T11:21:03.344Z,63.01
2018-04-12T11:23:32.534Z,62.91
2018-04-12T11:26:01.620Z,62.92
2018-04-12T11:28:30.013Z,63.25
2018-04-12T11:30:58.339Z,63.38
2018-04-12T11:33:27.344Z,63.29
2018-04-12T11:35:56.438Z,62.64
2018-04-12T11:38:25.377Z,62.81
2018-04-12T11:40:54.517Z,63.35
2018-04-12T11:43:23.014Z,63.74
2018-04-12T11:45:51.541Z,63.17
2018-04-12T11:48:19.882Z,62.63
2018-04-12T11:50:49.001Z,61.82
2018-04-12T11:53:18.258Z,62.05
2018-04-12T11:55:46.657Z,61.55
2018-04-12T11:58:14.917Z,59.87
2018-04-12T12:00:43.249Z,60.80
2018-04-12T12:03:12.875Z,60.91
2018-04-12T12:05:41.323Z,61.08
2018-04-12T12:08:10.651Z,60.74
2018-04-12T12:10:38.990Z,60.96
2018-04-12T12:13:10.098Z,61.23
2018-04-12T12:15:38.716Z,60.44
2018-04-12T12:18:07.616Z,60.15
2018-04-12T12:20:37.009Z,59.33
2018-04-12T12:23:06.054Z,60.98
2018-04-12T12:25:34.475Z,61.34
2018-04-12T12:28:02.853Z,60.93
2018-04-12T12:30:31.167Z,60.06
2018-04-12T12:32:59.959Z,59.94
2018-04-12T12:35:28.506Z,60.28
2018-04-12T12:37:56.848Z,60.00
2018-04-12T12:40:25.416Z,59.64
2018-04-12T12:42:53.833Z,58.84
2018-04-12T12:45:22.261Z,58.78
2018-04-12T12:47:51.470Z,59.77
2018-04-12T12:50:20.298Z,59.10
2018-04-12T12:52:49.674Z,59.83
2018-04-12T12:55:18.107Z,60.00
2018-04-12T12:57:47.307Z,59.91
2018-04-12T13:00:15.937Z,60.13
2018-04-12T13:02:44.440Z,59.87
2018-04-12T13:05:12.793Z,59.43
2018-04-12T13:07:41.188Z,59.01
2018-04-12T13:10:09.569Z,59.10
2018-04-12T13:12:37.923Z,58.92
2018-04-12T13:15:06.317Z,58.73
2018-04-12T13:17:34.713Z,59.29
2018-04-12T13:20:03.113Z,59.10
2018-04-12T13:22:32.343Z,59.52
2018-04-12T13:25:00.879Z,59.14
2018-04-12T13:27:30.350Z,58.75
2018-04-12T13:29:58.691Z,57.92
2018-04-12T13:32:27.039Z,57.72
2018-04-12T13:34:55.439Z,56.86
2018-04-12T13:37:24.610Z,57.13
2018-04-12T13:39:53.017Z,57.36
2018-04-12T13:42:23.102Z,56.53
2018-04-12T13:44:51.658Z,55.92
2018-04-12T13:47:20.022Z,55.69
2018-04-12T13:49:48.391Z,55.66
2018-04-12T13:52:17.478Z,55.26
2018-04-12T13:54:45.888Z,54.65
2018-04-12T13:57:14.262Z,54.96
2018-04-12T13:59:43.180Z,54.05
2018-04-12T14:02:11.721Z,54.00
2018-04-12T14:04:40.191Z,54.97
2018-04-12T14:07:08.589Z,55.34
2018-04-12T14:09:36.864Z,55.68
2018-04-12T14:12:05.346Z,54.69
2018-04-12T14:14:33.854Z,53.92
2018-04-12T14:17:02.453Z,53.07
2018-04-12T14:19:30.831Z,51.74
2018-04-12T14:21:59.186Z,50.73
2018-04-12T14:24:27.762Z,50.76
2018-04-12T14:26:56.275Z,49.58
2018-04-12T14:29:24.602Z,48.71
2018-04-12T14:31:53.185Z,47.63
2018-04-12T14:34:25.352Z,46.24
2018-04-12T14:36:53.829Z,44.29
2018-04-12T14:39:22.774Z,44.21
2018-04-12T14:41:51.183Z,42.75
2018-04-12T14:44:20.331Z,43.35
2018-04-12T14:46:48.671Z,45.87
2018-04-12T14:49:17.119Z,47.54
2018-04-12T14:51:45.456Z,46.87
2018-04-12T14:54:19.089Z,46.75
2018-04-12T14:56:42.948Z,45.47
2018-04-12T14:59:11.294Z,44.20
2018-04-12T15:01:39.956Z,44.73
2018-04-12T15:04:08.540Z,45.94
2018-04-12T15:06:36.995Z,46.88
2018-04-12T15:09:05.709Z,47.52
2018-04-12T15:11:34.017Z,48.10
2018-04-12T15:14:02.498Z,48.09
2018-04-12T15:16:30.907Z,49.25
2018-04-12T15:19:11.546Z,51.79
2018-04-12T15:21:38.171Z,51.08
2018-04-12T15:24:04.856Z,51.37
2018-04-12T15:26:31.540Z,51.55
2018-04-12T15:28:58.193Z,51.89
2018-04-12T15:31:24.832Z,51.15
2018-04-12T15:33:51.475Z,50.92
2018-04-12T15:36:18.129Z,51.14
2018-04-12T15:38:44.770Z,51.03
2018-04-12T15:41:11.418Z,50.98
2018-04-12T15:43:38.042Z,50.32
2018-04-12T15:46:04.820Z,50.98
2018-04-12T15:48:32.432Z,50.67
2018-04-12T15:50:59.329Z,50.36
2018-04-12T15:53:26.843Z,49.27
2018-04-12T15:55:53.516Z,50.11
2018-04-12T15:58:20.185Z,49.97
2018-04-12T16:00:46.860Z,49.27
2018-04-12T16:03:13.508Z,49.88
2018-04-12T16:05:40.170Z,50.42
2018-04-12T16:08:06.814Z,50.75
2018-04-12T16:10:33.482Z,50.52
2018-04-12T16:13:00.200Z,50.86
2018-04-12T16:15:27.676Z,50.49
2018-04-12T16:17:54.325Z,50.96
2018-04-12T16:20:21.160Z,51.35
2018-04-12T16:22:47.846Z,51.48
2018-04-12T16:25:14.489Z,51.21
2018-04-12T16:27:41.162Z,51.17
2018-04-12T16:30:16.501Z,51.83
2018-04-12T16:32:43.907Z,51.82
2018-04-12T16:35:10.586Z,52.48
2018-04-12T16:37:37.230Z,52.72
2018-04-12T16:40:04.804Z,52.92
2018-04-12T16:42:32.305Z,52.93
2018-04-12T16:45:00.697Z,53.82
2018-04-12T16:47:27.718Z,53.62
2018-04-12T16:49:54.377Z,54.07
2018-04-12T16:52:21.052Z,54.28
2018-04-12T16:54:47.714Z,54.80
2018-04-12T16:57:14.549Z,55.19
2018-04-12T16:59:41.984Z,55.06
2018-04-12T17:02:08.651Z,54.79
2018-04-12T17:04:36.203Z,54.97
2018-04-12T17:07:03.620Z,55.82
2018-04-12T17:09:30.257Z,56.48
2018-04-12T17:11:56.995Z,56.87
2018-04-12T17:14:23.668Z,57.09
2018-04-12T17:16:51.050Z,57.47
2018-04-12T17:19:17.704Z,57.60
2018-04-12T17:21:44.455Z,57.84
2018-04-12T17:24:11.071Z,57.92
2018-04-12T17:26:37.909Z,57.97
2018-04-12T17:29:04.557Z,58.40
2018-04-12T17:31:31.316Z,59.15
2018-04-12T17:33:57.979Z,58.72
2018-04-12T17:36:25.515Z,58.97
2018-04-12T17:38:52.141Z,59.40
2018-04-12T17:41:18.861Z,59.55
2018-04-12T17:43:46.312Z,59.80
2018-04-12T17:46:13.708Z,60.31
2018-04-12T17:48:40.402Z,60.07
2018-04-12T17:51:07.817Z,60.60
2018-04-12T17:53:34.500Z,60.78
2018-04-12T17:56:01.899Z,60.77
2018-04-12T17:58:28.525Z,61.05
2018-04-12T18:00:55.197Z,61.21
2018-04-12T18:03:21.951Z,61.54
2018-04-12T18:05:48.597Z,62.94
2018-04-12T18:08:15.256Z,64.26
2018-04-12T18:10:42.657Z,66.53
2018-04-12T18:13:09.345Z,69.12
2018-04-12T18:15:37.000Z,72.95
2018-04-12T18:18:03.712Z,72.47
2018-04-12T18:20:30.583Z,72.20
2018-04-12T18:22:58.016Z,71.63
2018-04-12T18:25:24.637Z,72.07
2018-04-12T18:27:51.314Z,71.95
2018-04-12T18:30:18.734Z,72.19
2018-04-12T18:32:46.339Z,72.85
2018-04-12T18:35:13.827Z,74.35
2018-04-12T18:37:40.797Z,74.38
2018-04-12T18:40:07.444Z,73.11
2018-04-12T18:42:34.104Z,72.00
2018-04-12T18:45:00.838Z,71.64
2018-04-12T18:47:27.592Z,73.59
2018-04-12T18:49:54.311Z,71.05
2018-04-12T18:52:21.096Z,72.11
2018-04-12T18:54:48.720Z,72.28
2018-04-12T18:57:15.360Z,73.27
2018-04-12T18:59:42.027Z,74.15
2018-04-12T19:02:09.433Z,73.05
2018-04-12T19:04:36.165Z,74.84
2018-04-12T19:07:02.852Z,74.74
2018-04-12T19:09:29.475Z,75.83
2018-04-12T19:11:56.166Z,75.96
2018-04-12T19:14:22.829Z,75.38
2018-04-12T19:16:49.523Z,75.42
2018-04-12T19:19:16.908Z,76.03
2018-04-12T19:21:43.572Z,76.38
2018-04-12T19:24:10.234Z,75.63
2018-04-12T19:26:36.895Z,74.84
2018-04-12T19:29:04.338Z,74.51
2018-04-12T19:31:30.989Z,74.66
2018-04-12T19:33:58.409Z,74.76
2018-04-12T19:36:25.096Z,75.26
2018-04-12T19:38:51.774Z,75.68
2018-04-12T19:41:18.672Z,75.80
2018-04-12T19:43:46.227Z,76.48
2018-04-12T19:46:13.630Z,77.08
2018-04-12T19:48:40.397Z,77.29
2018-04-12T19:51:07.086Z,77.23
2018-04-12T19:53:33.696Z,77.28
2018-04-12T19:56:01.246Z,77.39
2018-04-12T19:58:27.862Z,78.01
2018-04-12T20:00:54.645Z,78.50
2018-04-12T20:03:22.072Z,79.21
2018-04-12T20:05:48.714Z,79.42
2018-04-12T20:08:15.425Z,79.56
2018-04-12T20:10:42.083Z,79.56
2018-04-12T20:13:08.868Z,79.39
2018-04-12T20:15:35.542Z,79.42
2018-04-12T20:18:02.204Z,79.21
2018-04-12T20:20:28.888Z,78.84
2018-04-12T20:22:55.568Z,78.87
2018-04-12T20:25:22.376Z,79.15
2018-04-12T20:27:49.037Z,79.24
2018-04-12T20:30:15.791Z,78.99
2018-04-12T20:32:42.400Z,79.44
2018-04-12T20:35:09.068Z,80.15
2018-04-12T20:37:35.796Z,80.30
2018-04-12T20:40:02.594Z,80.55
2018-04-12T20:42:30.125Z,80.74
2018-04-12T20:44:56.749Z,80.80
2018-04-12T20:47:23.435Z,80.72
2018-04-12T20:49:50.087Z,80.87
2018-04-12T20:52:16.793Z,81.05
2018-04-12T20:54:43.453Z,81.18
2018-04-12T20:57:10.868Z,81.26
2018-04-12T20:59:37.475Z,81.34
2018-04-12T21:02:04.093Z,81.48
2018-04-12T21:04:30.748Z,81.45
2018-04-12T21:06:57.397Z,81.45
2018-04-12T21:09:24.056Z,81.50
2018-04-12T21:11:50.720Z,81.33
2018-04-12T21:14:17.536Z,81.29
2018-04-12T21:16:44.179Z,81.31
2018-04-12T21:19:10.985Z,81.34
2018-04-12T21:21:37.695Z,81.42
2018-04-12T21:24:05.073Z,81.30
2018-04-12T21:26:33.030Z,81.27
2018-04-12T21:29:00.418Z,80.96
2018-04-12T21:31:27.150Z,81.10
2018-04-12T21:33:53.804Z,80.86
2018-04-12T21:36:20.766Z,80.83
2018-04-12T21:38:48.122Z,80.74
2018-04-12T21:41:14.910Z,80.74
2018-04-12T21:43:42.504Z,80.81
2018-04-12T21:46:09.138Z,80.68
2018-04-12T21:48:35.815Z,80.79
2018-04-12T21:51:02.456Z,80.83
2018-04-12T21:53:29.116Z,80.97
2018-04-12T21:55:56.584Z,81.03
2018-04-12T21:58:23.944Z,81.16
2018-04-12T22:00:50.623Z,81.28
2018-04-12T22:03:18.158Z,81.12
2018-04-12T22:05:44.857Z,81.15
2018-04-12T22:08:11.677Z,81.12
2018-04-12T22:10:39.510Z,81.02
2018-04-12T22:13:06.176Z,81.07
2018-04-12T22:15:32.800Z,81.22
2018-04-12T22:17:59.599Z,81.39
2018-04-12T22:20:27.152Z,81.35
2018-04-12T22:22:53.863Z,81.15
2018-04-12T22:25:20.528Z,81.07
2018-04-12T22:27:47.902Z,81.07
2018-04-12T22:30:15.339Z,80.87
2018-04-12T22:32:42.709Z,81.13
2018-04-12T22:35:10.126Z,81.11
2018-04-12T22:37:36.788Z,81.23
2018-04-12T22:40:04.250Z,81.21
2018-04-12T22:42:31.792Z,81.21
2018-04-12T22:44:58.487Z,81.00
2018-04-12T22:47:25.133Z,81.31
2018-04-12T22:49:51.764Z,81.17
2018-04-12T22:52:18.418Z,81.25
2018-04-12T22:54:45.088Z,80.76
2018-04-12T22:57:11.736Z,81.19
2018-04-12T22:59:38.401Z,81.21
2018-04-12T23:02:05.208Z,81.02
2018-04-12T23:04:31.849Z,80.93
2018-04-12T23:06:58.552Z,80.80
2018-04-12T23:09:25.194Z,81.14
2018-04-12T23:11:51.840Z,81.19
2018-04-12T23:14:18.524Z,81.28
2018-04-12T23:16:45.906Z,81.07
2018-04-12T23:19:12.549Z,81.08
2018-04-12T23:21:39.232Z,81.07
2018-04-12T23:24:06.068Z,80.86
2018-04-12T23:26:32.671Z,80.93
2018-04-12T23:28:59.373Z,80.82
2018-04-12T23:31:26.844Z,80.77
2018-04-12T23:33:54.241Z,80.83
2018-04-12T23:36:21.003Z,80.76
2018-04-12T23:38:47.614Z,81.00
2018-04-12T23:41:14.259Z,80.95
2018-04-12T23:43:40.904Z,80.78
2018-04-12T23:46:07.734Z,80.75
2018-04-12T23:48:34.338Z,81.35
2018-04-12T23:51:01.716Z,81.26
2018-04-12T23:53:28.350Z,81.19
2018-04-12T23:55:55.082Z,80.97
2018-04-12T23:58:22.577Z,81.00
